Tatum, NM (88267)

3:12 PM MST on January 18, 2017 (GMT -0700)
1 SW of Tatum | | Change Station

Elev 4012 ft 33.24 °N, 103.34 °W | Updated 9 seconds ago

Clear
Clear
56.3 °F
Feels Like 56.3 °F
N
12.4
Wind Variable Wind from WSW
Gusts 13.8 mph

Today
High -- | Low -- °F
--% Chance of Precip.
Yesterday
High -- | Low -- °F
Precip. -- in
Pressure 29.99 in
Visibility 10.0 miles
Clouds Few 4000 ft
Dew Point 37 °F
Humidity 49%
Rainfall 0.00 in
Snow Depth Not available.
6:55 AM 5:12 PM
Waning Gibbous, 60% visible
METAR KHOB 182150Z 22009G14KT 10SM FEW040 14/03 A2999
Pressure 29.99 in
Visibility 10.0 miles
Clouds Few 4000 ft
Dew Point 37 °F
Humidity 49%
Rainfall 0.00 in
Snow Depth Not available.
6:55 AM 5:12 PM
Waning Gibbous, 60% visible
METAR KHOB 182150Z 22009G14KT 10SM FEW040 14/03 A2999

Get Your Daily Forecast Email!

Thanks for signing up!

Be on the lookout for a verification email in your inbox.

You'll start receiving the daily forecast at 8 AM.

×

10-Day Weather Forecast

Almanac

Astronomy

Jan. 18, 2017 Rise Set
Actual Time
Civil Twilight
Nautical Twilight
Astronomical Twilight
Moon
Length of Visible Light
Length of Day
Tomorrow will be .
, % of the Moon is Illuminated

Today's Extremes

State Highs State Lows

Community

WunderPhotos

Upload Photos

1,962,540 photos uploaded!

WunderBlog® & News

Nearby

Air Quality

  Air Quality AQ Index Pollutant
Not available.

Snow Depth

Station Depth Elevation

Earthquake Activity

City Distance Mag. Time & Date
Minimum magnitude displayed is 2.5.

Coastal Water Temperatures

Place Temperature

Stations

Nearby Weather Stations

Station Location Temp. Windchill Dew Point Humidity Wind Precip. Elev Updated Type
                   

Watches & Warnings

There are currently no watches in effect.